Tiempo atmosférico en la estación meteorológica de Puerto de Navacerrada, Madrid (1894 m.)



Fecha
DESCASC
Temp. máxima en grados centígrados (hora)
DESCASC
Temp. mínima en grados centígrados (hora)
DESCASC
Temp. media en grados centígrados
DESCASC
Racha de viento máxima en m/sg (hora)
DESCASC
Velocidad máxima media en intervalos de 10 minutos(hora)
DESCASC
Precipitaciones diarias en mm
DESCASC
Precipitaciones de 00:00 a 06:00 en mm
DESCASC
Precipitaciones de 06:00 a 12:00 en mm
DESCASC
Precipitaciones de 12:00 a 18:00 en mm
DESCASC
Precipitaciones de 18:00 a 24:00 en mm
DESCASC
18-04-2019 5.7 (00:00) 0.2 (07:10) 2.9 27.22 (02:00) 11.67 (02:00) 27.4 20 4 1.4 2
17-04-2019 12.3 (16:20) 3.7 (07:20) 8 25.56 (19:20) 13.61 (02:10) 1.6 0 0 0 1.6
16-04-2019 16.3 (11:50) -0.3 (00:00) 8 20 (23:20) 12.22 (23:30) 0 0 0 0 0
15-04-2019 10.9 (15:40) 1.8 (00:00) 6.3 18.06 (13:40) 9.44 (16:40) 0.2 0 0 0 0.2
14-04-2019 12.7 (15:30) 3.2 (00:00) 7.9 8.61 (02:50) 4.17 (02:40) 0 0 0 0 0
13-04-2019 11.6 (15:30) -0.5 (-00:0) 5.6 7.78 (23:50) 5 (00:30) 0 0 0 0 0
12-04-2019 6.2 (17:20) -1.5 (-00:0) 2.3 11.39 (11:10) 6.67 (11:50) 0 0 0 0 0
11-04-2019 3 (17:10) -3.2 (-00:0) -0.1 9.72 (02:50) 5.28 (21:20) 0 0 0 0 0
10-04-2019 0.2 (17:10) -2.8 (-00:0) -1.3 17.5 (04:00) 6.11 (04:40) 6.6 1.8 2.6 2 0.2
09-04-2019 2.2 (11:50) -2.5 (-00:0) -0.1 18.33 (23:40) 6.11 (23:40) 8 0 0.2 5.4 2.4
08-04-2019 5.6 (16:30) -1.1 (-00:0) 2.2 15.83 (00:50) 7.78 (00:50) 7.2 0.8 3.4 0 3
07-04-2019 2.3 (15:00) -4.5 (-00:0) -1.1 15.83 (00:10) 8.33 (21:20) 10.2 3.2 1 0.8 5.2
06-04-2019 -0.4 (16:10) -5.4 (-00:0) -2.9 19.72 (22:20) 8.89 (14:50) 7 0.4 0.6 5 1
05-04-2019 0.2 (15:30) -4.2 (-00:0) -2 17.5 (02:20) 10.83 (02:00) 23.6 4.6 3.4 13.8 1.8
04-04-2019 5.1 (15:40) -7.4 (-00:0) -1.2 16.11 (00:50) 7.22 (23:50) 0 0 0 0 0
03-04-2019 2.6 (00:00) -4.1 (-00:0) -0.8 18.33 (17:50) 7.22 (16:20) 0 0 0 0 0
02-04-2019 7.8 (16:00) 0.5 (00:00) 4.2 10 (16:20) 5 (16:30) 2.2 0.4 0 1.8 0
01-04-2019 6.8 (16:30) 0.7 (00:00) 3.8 8.33 (02:00) 5 (01:30) 3.4 0 0 0 3.4
31-03-2019 9 (11:50) 1.2 (00:00) 5.1 10 (00:40) 6.11 (00:40) 0 0 0 0 0
30-03-2019 12.2 (14:10) -1.4 (-00:0) 5.4 12.5 (03:00) 8.33 (04:30) 0 0 0 0 0
29-03-2019 9.8 (14:20) -0.4 (00:00) 4.7 14.72 (09:20) 8.89 (05:10) 0 0 0 0 0
28-03-2019 12.4 (13:00) -0.2 (00:00) 6.1 11.11 (03:40) 6.67 (03:30) 0 0 0 0 0
27-03-2019 12.5 (13:50) 1.4 (00:00) 6.9 10.83 (01:10) 6.11 (21:10) 0 0 0 0 0
26-03-2019 13.6 (14:20) 2 (00:00) 7.8 13.61 (12:30) 6.67 (12:40) 0 0 0 0 0
25-03-2019 11.1 (14:40) 2.8 (00:00) 7 10.83 (00:40) 6.11 (00:40) 0 0 0 0 0
24-03-2019 12.8 (15:00) 1.4 (00:00) 7.1 12.22 (12:20) 7.5 (04:00) 0 0 0 0 0
23-03-2019 12.4 (14:40) 1 (00:00) 6.7 10.83 (13:20) 6.67 (10:40) 0 0 0 0 0
22-03-2019 11.4 (14:50) -2.3 (-00:0) 4.5 11.39 (23:00) 7.22 (23:30) 0 0 0 0 0
21-03-2019 8.9 (13:10) -3.2 (-00:0) 2.8 11.67 (03:20) 7.5 (03:20) 0 0 0 0 0

Gráficas

Temp. máximas Temp. mínimas Temp. medias Precipitaciones Rachas de viento máximas Velocidades máximas media en intervalos de 10 minutos

Datos horarios

Fecha y hora oficial Temperatura (ºC) Velocidad del viento (km/h) Dirección del viento Racha (km/h) Dirección de racha Precipitación (mm) Presión (hPa) Tendencia (hPa) Humedad (%)
2019-04-19 23:00:00 3.7 43 Este 99 Este 0 812.1 2.1 91
2019-04-19 22:00:00 3.4 39 Este 92 Este 0 811.6 1.7 96
2019-04-19 21:00:00 4 41 Este 101 Sudeste 0.2 810.5 0.5 100
2019-04-19 20:00:00 3.7 38 Este 85 Este 0.2 810 -0.3 100
2019-04-19 19:00:00 3.3 27 Este 57 Este 1.8 809.9 -0.6 100
2019-04-19 18:00:00 2.4 17 Nordeste 33 Este 1 810 -0.4 99
2019-04-19 17:00:00 2.6 9 Este 27 Este 0.6 810.3 0 99
2019-04-19 16:00:00 3.2 7 Este 26 Nordeste 0.8 810.5 0.4 100
2019-04-19 15:00:00 3 12 Nordeste 25 Nordeste 0.4 810.4 0.9 99
2019-04-19 14:00:00 2.9 12 Este 26 Sudeste 0.2 810.3 1.6 99
2019-04-19 13:00:00 3.2 12 Este 40 Este 0.2 810.1 1.7 100
2019-04-19 12:00:00 2 18 Este 48 Este 0 809.5 1.5 100
2019-04-19 11:00:00 1.8 20 Este 46 Este 0 808.7 1.3 100
2019-04-19 10:00:00 1.4 17 Este 41 Este 0 808.4 1.6 100
2019-04-19 09:00:00 1 18 Este 39 Este 0 808 1.4 100
2019-04-19 08:00:00 0.5 18 Este 39 Sudeste 0 807.4 0.9 100
2019-04-19 07:00:00 0.4 14 Este 40 Sudeste 0 806.8 0.5 100
2019-04-19 06:00:00 0.7 9 Este 32 Este 0.2 806.6 0.1 100
2019-04-19 05:00:00 0.7 13 Este 30 Este 0 806.5 -0.2 100
2019-04-19 04:00:00 0.4 11 Este 27 Este 0 806.3 -0.2 100
2019-04-19 03:00:00 0.6 4 Este 23 Este 0.2 806.5 -0.1 100
2019-04-19 02:00:00 0.8 6 Norte 23 Sudeste 0 806.7 -0.1 100
2019-04-19 01:00:00 1.1 4 Oeste 8 Oeste 0 806.5 0 100
2019-04-19 00:00:00 1 2 Sudeste 21 Este 0.8 806.6 0.5 99
2019-04-18 23:00:00 1.6 5 Sudeste 9 Sur 0.6 806.8 0.9 100
2019-04-18 22:00:00 1.7 3 Nordeste 9 Norte 0.2 806.5 0.7 99
2019-04-18 21:00:00 1.8 4 Nordeste 15 Este 0.4 806.1 0.4 99
2019-04-18 20:00:00 2.4 6 Este 16 Nordeste 0 805.9 0 98
2019-04-18 19:00:00 2.7 9 Nordeste 17 Este 0 805.8 -0.3 97
2019-04-18 18:00:00 3.3 7 Este 17 Este 0.2 805.7 -0.2 98
2019-04-18 17:00:00 3 4 Sudeste 26 Sudeste 0.4 805.9 -0.4 96
2019-04-18 16:00:00 3.4 16 Sudeste 28 Sudeste 0 806.1 -0.7 95
2019-04-18 15:00:00 3.4 8 Este 28 Este 0 805.9 -1.4 99
2019-04-18 14:00:00 2.1 14 Este 30 Este 0 806.3 -0.6 100
2019-04-18 13:00:00 1.7 8 Este 19 Este 0.8 806.8 0.3 100
2019-04-18 12:00:00 0.5 11 Este 20 Este 1.2 807.3 0.4 100
2019-04-18 11:00:00 1.2 7 Este 15 Nordeste 0.2 806.9 0.2 100
2019-04-18 10:00:00 0.9 13 Nordeste 17 Nordeste 0.2 806.5 0.3 100
2019-04-18 09:00:00 0.5 5 Nordeste 17 Sur 0.4 806.9 0.9 100
2019-04-18 08:00:00 0.5 9 Sur 35 Sur 0.8 806.7 0.3 100
2019-04-18 07:00:00 0.4 17 Sur 39 Sur 1.2 806.2 -0.4 100
2019-04-18 06:00:00 0.8 18 Sur 44 Sudoeste 2.6 806 -1 100
2019-04-18 05:00:00 0.6 21 Sur 67 Sudoeste 3.2 806.4 -0.5 100
2019-04-18 04:00:00 1.1 31 Sudoeste 75 Sur 5.2 806.6 -1.1 100
2019-04-18 03:00:00 2.7 15 Sudoeste 80 Sudoeste 3.4 807 -0.6 99
2019-04-18 02:00:00 5 42 Sur 98 Sur 1.4 806.9 -0.7 99
2019-04-18 01:00:00 5.2 36 Sur 75 Sur 4.2 807.7 0 98
2019-04-18 00:00:00 5.7 36 Sudeste 71 Sudeste 0.6 807.6 0.4 92
2019-04-17 23:00:00 5.6 15 Sur 60 Sudeste 0 807.6 1.2 88
2019-04-17 22:00:00 5.7 17 Sur 55 Sur 0.4 807.7 1.6 93
2019-04-17 21:00:00 6 27 Sudoeste 53 Sudoeste 0.6 807.2 1.3 93
2019-04-17 20:00:00 8 22 Sudoeste 92 Sudoeste 0 806.4 0.3 76
2019-04-17 19:00:00 10.7 18 Sudeste 76 Sudeste 0 806.1 -0.7 60
2019-04-17 18:00:00 11.4 26 Sudeste 71 Sur 0 805.9 -1.5 55
2019-04-17 17:00:00 11.1 23 Sur 59 Sur 0 806.1 -1.6 57
2019-04-17 16:00:00 11.5 25 Sudeste 61 Sur 0 806.8 -1.6 56
2019-04-17 15:00:00 11.3 31 Sudeste 57 Sudeste 0 807.4 -1 53
2019-04-17 14:00:00 11.2 23 Sudeste 58 Sudeste 0 807.7 -0.3 46
2019-04-17 13:00:00 10.2 35 Sudeste 60 Sudeste 0 808.4 0.9 52
2019-04-17 12:00:00 9.6 38 Sudeste 64 Sudeste 0 808.4 0.6 56
2019-04-17 11:00:00 9 41 Sudeste 78 Sudeste 0 808 0.4 51
2019-04-17 10:00:00 4.6 40 Sudeste 75 Sur 0 807.5 0 77
2019-04-17 09:00:00 3.8 39 Sur 72 Sudeste 0 807.8 -0.1 92
2019-04-17 08:00:00 4.4 38 Sudeste 66 Sudeste 0 807.6 -0.6 86
2019-04-17 07:00:00 4.3 41 Sur 68 Sudeste 0 807.5 -1.2 88
2019-04-17 06:00:00 4.4 41 Sudeste 68 Sudeste 0 807.9 -0.9 88
2019-04-17 05:00:00 4.8 48 Sudeste 69 Sudeste 0 808.2 -1.1 83
2019-04-17 04:00:00 5.6 41 Sudeste 71 Sur 0 808.7 -0.7 72
2019-04-17 03:00:00 5 41 Sur 78 Sudeste 0 808.8 -1.2 79
2019-04-17 02:00:00 5.3 47 Sudeste 79 Sudeste 0 809.3 -1 86
2019-04-17 01:00:00 6.8 26 Sudeste 77 Sudeste 0 809.4 -1.1 56
2019-04-17 00:00:00 7.5 38 Sudeste 72 Sur 0 810 -0.4 48
2019-04-16 23:00:00 7.1 35 Sur 62 Sur 0 810.3 -0.1 50
2019-04-16 22:00:00 6.9 37 Sudeste 60 Sudeste 0 810.5 -0.3 53
2019-04-16 21:00:00 6.9 37 Sudeste 56 Sudeste 0 810.4 -0.5 52
2019-04-16 20:00:00 7.4 33 Sudeste 52 Sudeste 0 810.4 -0.7 54
2019-04-16 19:00:00 8.7 20 Sur 43 Sur 0 810.8 -0.8 50
2019-04-16 18:00:00 10.2 18 Sur 49 Sur 0 810.9 -1.1 45
2019-04-16 17:00:00 10.1 26 Sur 53 Sur 0 811.1 -1 50
2019-04-16 16:00:00 10.7 23 Sur 53 Sur 0 811.6 -0.6 53
2019-04-16 15:00:00 10.1 21 Sudeste 44 Sur 0 812 -0.2 56
2019-04-16 14:00:00 10.6 19 Sur 39 Sur 0 812.1 0.2 55
2019-04-16 13:00:00 10.1 20 Sur 36 Sur 0 812.2 0.6 59
2019-04-16 12:00:00 11.2 12 Sur 29 Sur 0 812.2 0.6 59
2019-04-16 11:00:00 9 12 Sur 21 Sur 0 811.9 0.5 62
2019-04-16 10:00:00 6 4 Sudeste 22 Sur 0 811.6 0.5 57
2019-04-16 09:00:00 2.5 5 Sudeste 21 Sudeste 0 811.6 0.3 68
2019-04-16 08:00:00 0 15 Sur 24 Sur 0 811.4 0 97
2019-04-16 07:00:00 0 4 Este 9 Sur 0 811.1 -0.2 97
2019-04-16 06:00:00 0.2 6 Norte 15 Norte 0 811.3 0.4 100
2019-04-16 05:00:00 1 7 Nordeste 19 Norte 0 811.4 0.3 100
2019-04-16 04:00:00 1.5 11 Norte 26 Norte 0 811.3 0.2 100
2019-04-16 03:00:00 1.8 14 Norte 31 Norte 0 810.9 0.1 100
2019-04-16 02:00:00 2 18 Norte 37 Norte 0 811.1 0.8 100
2019-04-16 01:00:00 1.9 17 Noroeste 41 Noroeste 0 811.1 1.1 100
2019-04-16 00:00:00 2 21 Norte 39 Norte 0 810.8 1.2 100
2019-04-15 23:00:00 1.9 17 Norte 51 Norte 0 810.3 0.9 100
2019-04-15 22:00:00 1.9 18 Norte 30 Norte 0 810 0.9 99
2019-04-15 21:00:00 2.9 9 Noroeste 26 Noroeste 0 809.6 1.4 98
2019-04-15 20:00:00 4 10 Noroeste 42 Noroeste 0.2 809.4 1.5 94
2019-04-15 19:00:00 7.2 13 Noroeste 49 Sudoeste 0 809.1 1 83
2019-04-15 18:00:00 10.3 27 Sudoeste 57 Sudoeste 0 808.2 -0.4 51
2019-04-15 17:00:00 10.1 31 Sudoeste 53 Sudoeste 0 807.9 -0.4 65
2019-04-15 16:00:00 10 23 Sudoeste 63 Sudoeste 0 808.1 -0.6 68
2019-04-15 15:00:00 9.3 27 Sudoeste 60 Sur 0 808.6 -0.5 86
2019-04-15 14:00:00 8.1 29 Sur 65 Sur 0 808.3 -1.1 97
2019-04-15 13:00:00 7.2 25 Sur 57 Sudeste 0 808.7 -0.6 100
2019-04-15 12:00:00 7.2 24 Sur 61 Sur 0 809.1 -0.6 100
2019-04-15 11:00:00 6.8 24 Sudeste 41 Sur 0 809.4 -0.5 99
2019-04-15 10:00:00 6.9 23 Sur 36 Sur 0 809.3 -0.3 98
2019-04-15 09:00:00 6.6 19 Sur 40 Sur 0 809.7 -0.1 99
2019-04-15 08:00:00 6 26 Sur 41 Sur 0 809.9 -0.4 100
2019-04-15 07:00:00 5.9 28 Sur 48 Sur 0 809.6 -1.3 98
2019-04-15 06:00:00 6.5 27 Sur 43 Sur 0 809.8 -1.5 95
2019-04-15 05:00:00 6.9 29 Sur 44 Sudeste 0 810.3 -1.6 91
2019-04-15 04:00:00 6.8 27 Sur 39 Sudeste 0 810.9 -1.3 89
2019-04-15 03:00:00 7.2 23 Sudeste 40 Sudeste 0 811.3 -1.3 81
2019-04-15 02:00:00 7.3 20 Sur 39 Sudeste 0 811.9 -0.6 90
2019-04-15 01:00:00 7.3 18 Sudeste 31 Sudeste 0 812.2 -0.5 90
2019-04-15 00:00:00 8.1 14 Sur 26 Sur 0 812.6 0 86
2019-04-14 23:00:00 7.5 14 Sudeste 21 Sudeste 0 812.5 0.1 88
2019-04-14 22:00:00 7.5 3 Norte 9 Norte 0 812.7 0.3 93
2019-04-14 21:00:00 8 8 Noroeste 13 Noroeste 0 812.6 0.3 89
2019-04-14 20:00:00 9 7 Norte 18 Noroeste 0 812.4 -0.2 84
2019-04-14 19:00:00 10.9 6 Noroeste 18 Noroeste 0 812.4 -0.6 75
2019-04-14 18:00:00 12 8 Norte 22 Noroeste 0 812.3 -0.8 70
2019-04-14 17:00:00 10.4 12 Norte 22 Norte 0 812.6 -0.4 76
2019-04-14 16:00:00 11.2 10 Norte 24 Norte 0 813 -0.1 74
2019-04-14 15:00:00 11.2 4 Norte 16 Noroeste 0 813.1 0 74
2019-04-14 14:00:00 10.1 7 Noroeste 15 Norte 0 813 0 79
2019-04-14 13:00:00 9.3 3 Norte 12 Sudoeste 0 813.1 0.5 85
2019-04-14 12:00:00 8.1 4 Oeste 12 Noroeste 0 813.1 0.4 88
2019-04-14 11:00:00 6.9 4 Noroeste 14 Oeste 0 813 0.3 93
2019-04-14 10:00:00 6 6 Noroeste 16 Norte 0 812.6 0.2 100
2019-04-14 09:00:00 5 6 Norte 14 Noroeste 0 812.7 0.2 100
2019-04-14 08:00:00 4.7 5 Norte 22 Norte 0 812.7 -0.2 100
2019-04-14 07:00:00 4.3 10 Norte 20 Noroeste 0 812.4 -0.7 100
2019-04-14 06:00:00 3.9 13 Norte 27 Noroeste 0 812.5 -0.9 100
2019-04-14 05:00:00 3.4 12 Norte 23 Norte 0 812.9 -0.8 99
2019-04-14 04:00:00 3.2 11 Norte 25 Noroeste 0 813.1 -0.6 96
2019-04-14 03:00:00 3.8 15 Norte 31 Norte 0 813.4 -0.4 90
2019-04-14 02:00:00 3.9 10 Norte 26 Noroeste 0 813.7 -0.4 80
2019-04-14 01:00:00 5.1 10 Noroeste 25 Norte 0 813.7 0 48
2019-04-14 00:00:00 5.3 17 Norte 28 Norte 0 813.8 0.4 41
2019-04-13 23:00:00 5.3 15 Norte 23 Norte 0 814.1 0.9 39
2019-04-13 22:00:00 5.4 15 Norte 22 Norte 0 813.7 0.7 35
2019-04-13 21:00:00 6.2 11 Noroeste 17 Norte 0 813.4 0.5 31
2019-04-13 20:00:00 9.2 5 Noroeste 19 Oeste 0 813.2 0.3 33
2019-04-13 19:00:00 10 8 Noroeste 21 Noroeste 0 813 -0.1 29
2019-04-13 18:00:00 10.1 8 Noroeste 20 Noroeste 0 812.9 -0.1 37
2019-04-13 17:00:00 10.4 8 Norte 23 Noroeste 0 812.9 -0.1 40
2019-04-13 16:00:00 11.6 7 Oeste 22 Noroeste 0 813.1 -0.1 36
2019-04-13 15:00:00 11.2 6 Noroeste 23 Sudoeste 0 813 -0.3 34
2019-04-13 14:00:00 11 10 Oeste 25 Oeste 0 813 -0.1 28
2019-04-13 13:00:00 10.2 4 Norte 15 Sudeste 0 813.2 0.6 33
2019-04-13 12:00:00 7.9 4 Noroeste 13 Noroeste 0 813.3 0.8 36
2019-04-13 11:00:00 6.7 6 Noroeste 13 Oeste 0 813.1 1 27
2019-04-13 10:00:00 3.9 8 Oeste 14 Norte 0 812.6 0.9 31
2019-04-13 09:00:00 0.7 8 Oeste 13 Noroeste 0 812.5 0.9 61
2019-04-13 08:00:00 -0.4 10 Noroeste 16 Noroeste 0 812.1 0.5 65
2019-04-13 07:00:00 -0.3 9 Noroeste 16 Oeste 0 811.7 0.2 66
2019-04-13 06:00:00 -0.1 12 Noroeste 19 Noroeste 0 811.6 -0.6 67
2019-04-13 05:00:00 -0.3 5 Nordeste 21 Norte 0 811.6 -0.8 69
2019-04-13 04:00:00 0.2 17 Norte 22 Norte 0 811.5 -0.9 66
2019-04-13 03:00:00 0.4 15 Norte 24 Norte 0 812.2 -0.4 67
2019-04-13 02:00:00 0.7 15 Norte 23 Norte 0 812.4 -0.1 67
2019-04-13 01:00:00 0.9 15 Norte 26 Norte 0 812.4 0.3 67
2019-04-13 00:00:00 1.2 18 Norte 27 Norte 0 812.6 0.8 70
2019-04-12 23:00:00 1.2 12 Norte 24 Norte 0 812.5 0.9 71
2019-04-12 22:00:00 1.6 18 Norte 27 Norte 0 812.1 0.5 70
2019-04-12 21:00:00 2 17 Norte 26 Norte 0 811.8 0.4 75
2019-04-12 20:00:00 3.6 12 Noroeste 28 Noroeste 0 811.6 0.3 68
2019-04-12 19:00:00 4.7 10 Norte 26 Norte 0 811.6 0.1 65
2019-04-12 18:00:00 5.5 10 Noroeste 26 Noroeste 0 811.4 -0.4 60
2019-04-12 17:00:00 5.4 12 Noroeste 30 Noroeste 0 811.3 -0.3 64
2019-04-12 16:00:00 4.8 14 Noroeste 35 Norte 0 811.5 0 63
2019-04-12 15:00:00 4.9 11 Norte 38 Norte 0 811.8 0.3 62
2019-04-12 14:00:00 3.8 18 Norte 37 Norte 0 811.6 0.3 66
2019-04-12 13:00:00 3.2 18 Norte 34 Norte 0 811.5 0.3 73
2019-04-12 12:00:00 2.5 19 Norte 41 Noroeste 0 811.5 0.4 77
2019-04-12 11:00:00 1.2 20 Noroeste 38 Norte 0 811.3 0.4 83
2019-04-12 10:00:00 0.3 15 Norte 26 Nordeste 0 811.2 0.4 90
2019-04-12 09:00:00 -0.8 16 Nordeste 27 Nordeste 0 811.1 0.4 94
2019-04-12 08:00:00 -1.1 17 Norte 30 Norte 0 810.9 0.2 96
2019-04-12 07:00:00 -1.4 18 Norte 30 Norte 0 810.8 -0.2 96
2019-04-12 06:00:00 -1.2 22 Norte 31 Norte 0 810.7 -0.7 92
2019-04-12 05:00:00 -1.1 16 Nordeste 24 Norte 0 810.7 -1 89
2019-04-12 04:00:00 -1 15 Norte 23 Norte 0 811 -0.8 89
2019-04-12 03:00:00 -1.3 11 Nordeste 23 Norte 0 811.4 -0.4 86
2019-04-12 02:00:00 -1 13 Nordeste 26 Norte 0 811.7 0 92
2019-04-12 01:00:00 -0.9 17 Norte 25 Norte 0 811.8 0.1 91
2019-04-12 00:00:00 -0.7 15 Norte 28 Norte 0 811.8 0.5 89
2019-04-11 23:00:00 -0.7 15 Norte 26 Norte 0 811.7 0.7 88
2019-04-11 22:00:00 -0.6 16 Norte 30 Norte 0 811.7 0.6 89
2019-04-11 21:00:00 -0.2 17 Norte 33 Norte 0 811.3 0.1 90
2019-04-11 20:00:00 0.7 13 Norte 31 Norte 0 811 -0.1 86
2019-04-11 19:00:00 1.6 14 Norte 32 Norte 0 811.1 -0.1 81
2019-04-11 18:00:00 1.9 13 Norte 26 Norte 0 811.2 0 87
2019-04-11 17:00:00 2.5 14 Norte 31 Norte 0 811.1 -0.2 85
2019-04-11 16:00:00 1.7 10 Norte 33 Noroeste 0 811.2 -0.2 85
2019-04-11 15:00:00 1.9 13 Norte 30 Nordeste 0 811.2 0 86
2019-04-11 14:00:00 1.8 16 Norte 29 Norte 0 811.3 0.3 87
2019-04-11 13:00:00 1 13 Norte 29 Norte 0 811.4 0.6 96
2019-04-11 12:00:00 0.1 12 Norte 23 Norte 0 811.2 0.8 99
2019-04-11 11:00:00 -0.5 13 Norte 32 Norte 0 811 1 100
2019-04-11 10:00:00 -1.4 15 Norte 26 Norte 0 810.8 1.1 100
2019-04-11 09:00:00 -2.5 13 Norte 28 Norte 0 810.4 0.7 100
2019-04-11 08:00:00 -3 14 Norte 23 Norte 0 810 0.4 100
2019-04-11 07:00:00 -3.2 13 Norte 26 Norte 0 809.7 0.3 100
2019-04-11 06:00:00 -2.7 13 Noroeste 24 Norte 0 809.7 0.2 100
2019-04-11 05:00:00 -2.8 14 Norte 26 Norte 0 809.6 -0.2 100
2019-04-11 04:00:00 -1.9 10 Norte 30 Norte 0 809.4 -0.4 100
2019-04-11 03:00:00 -1.5 13 Norte 35 Noroeste 0 809.5 -0.4 100
2019-04-11 02:00:00 -1.2 12 Norte 26 Nordeste 0 809.8 0.1 100
2019-04-11 01:00:00 -0.9 14 Norte 26 Norte 0 809.8 0.7 100
2019-04-11 00:00:00 -0.6 10 Nordeste 30 Noroeste 0.2 809.9 1.8 100
2019-04-10 23:00:00 -0.5 10 Norte 28 Norte 0 809.7 2.2 100
2019-04-10 22:00:00 -0.7 9 Nordeste 24 Norte 0 809.1 1.9 100
2019-04-10 21:00:00 -0.6 11 Norte 32 Norte 0 808.1 1.3 100
2019-04-10 20:00:00 -0.4 13 Norte 35 Norte 0 807.5 1 100
2019-04-10 19:00:00 -0.3 17 Noroeste 35 Norte 0 807.2 0.5 100
2019-04-10 18:00:00 -0.2 16 Norte 41 Noroeste 0 806.8 0.4 100
2019-04-10 17:00:00 0.1 17 Norte 38 Noroeste 0 806.5 0.1 100
2019-04-10 16:00:00 -0.4 18 Norte 43 Norte 1.2 806.7 0.1 100
2019-04-10 15:00:00 -0.7 19 Norte 36 Norte 0.2 806.4 0 100
2019-04-10 14:00:00 -1.1 17 Noroeste 38 Noroeste 0.2 806.4 0.1 100
2019-04-10 13:00:00 -1.3 14 Noroeste 36 Norte 0.4 806.6 0.6 100
2019-04-10 12:00:00 -1.8 16 Noroeste 34 Noroeste 0.4 806.4 0.5 100
2019-04-10 11:00:00 -1.9 18 Noroeste 39 Noroeste 0.6 806.3 0.7 100
2019-04-10 10:00:00 -2.1 13 Noroeste 45 Noroeste 1.6 806 0.7 100
2019-04-10 09:00:00 -2.2 14 Noroeste 47 Noroeste 0 805.9 0.9 100
2019-04-10 08:00:00 -2.6 18 Noroeste 52 Noroeste 0 805.6 0.6 100
2019-04-10 07:00:00 -2.5 20 Noroeste 56 Norte 0 805.3 0.1 100
2019-04-10 06:00:00 -2.3 19 Noroeste 62 Noroeste 0 805 -0.3 100
2019-04-10 05:00:00 -2.2 17 Noroeste 51 Noroeste 0 805 -0.4 100
2019-04-10 04:00:00 -2 18 Noroeste 63 Noroeste 0.6 805.2 -0.5 100
2019-04-10 03:00:00 -2 19 Noroeste 53 Noroeste 0.2 805.3 -0.4 100
2019-04-10 02:00:00 -1.8 21 Noroeste 54 Norte 1 805.4 -0.6 100
2019-04-10 01:00:00 -1.2 14 Noroeste 57 Noroeste 0 805.7 0.1 100
2019-04-10 00:00:00 -1.2 14 Noroeste 66 Oeste 0.6 805.7 0.5 100
2019-04-09 23:00:00 -1.1 21 Noroeste 61 Oeste 0.4 806 0.9 100
2019-04-09 22:00:00 -1.1 19 Noroeste 53 Noroeste 0 805.6 1 100
2019-04-09 21:00:00 -1.1 16 Noroeste 46 Noroeste 0.2 805.2 0.9 100
2019-04-09 20:00:00 -0.7 15 Oeste 48 Oeste 1.2 805.1 0.8 100
2019-04-09 19:00:00 0.7 19 Noroeste 50 Noroeste 0 804.6 -0.1 90
2019-04-09 18:00:00 1 18 Noroeste 54 Noroeste 0 804.3 -0.5 90
2019-04-09 17:00:00 -0.8 18 Noroeste 57 Noroeste 0.4 804.3 -0.5 99
2019-04-09 16:00:00 -2 18 Noroeste 51 Norte 2 804.7 -0.2 100
2019-04-09 15:00:00 -1.5 18 Noroeste 45 Noroeste 1.4 804.8 -0.3 97
2019-04-09 14:00:00 -0.2 13 Oeste 35 Oeste 1.2 804.8 -0.4 96
2019-04-09 13:00:00 1 19 Oeste 37 Oeste 0.4 804.9 -0.4 91
2019-04-09 12:00:00 1.2 16 Oeste 39 Oeste 0 805.1 -0.4 85
2019-04-09 11:00:00 -0.4 19 Oeste 33 Oeste 0.2 805.2 -0.2 95
2019-04-09 10:00:00 -1 15 Oeste 38 Oeste 0 805.3 0 97
2019-04-09 09:00:00 -1.7 9 Oeste 26 Oeste 0 805.5 0.1 98
2019-04-09 08:00:00 -2.4 12 Oeste 26 Oeste 0 805.4 -0.3 97
2019-04-09 07:00:00 -2.3 6 Nordeste 19 Oeste 0 805.3 -0.5 100
2019-04-09 06:00:00 -2.1 6 Oeste 23 Sudoeste 0 805.4 -0.7 98
2019-04-09 05:00:00 -1.9 4 Noroeste 23 Noroeste 0 805.7 -0.6 100
2019-04-09 04:00:00 -1.7 7 Norte 22 Norte 0 805.8 -0.6 100
2019-04-09 03:00:00 -1.5 6 Norte 22 Noroeste 0 806.1 -0.1 100
2019-04-09 02:00:00 -1.3 13 Norte 25 Noroeste 0 806.3 0 100
2019-04-09 01:00:00 -1.2 10 Norte 24 Noroeste 0 806.4 0.1 100
2019-04-09 00:00:00 -1.1 12 Noroeste 30 Noroeste 0 806.2 0.4 100
2019-04-08 23:00:00 -1.1 12 Noroeste 36 Noroeste 0.8 806.3 0.6 100
2019-04-08 22:00:00 -0.9 13 Noroeste 35 Noroeste 1.6 806.3 0.6 100
2019-04-08 21:00:00 0.2 7 Noroeste 28 Noroeste 0.6 805.8 -0.1 94
2019-04-08 20:00:00 1.6 10 Noroeste 27 Noroeste 0 805.7 -0.5 85
2019-04-08 19:00:00 1.9 8 Norte 24 Norte 0 805.7 -0.7 93
2019-04-08 18:00:00 3.6 10 Noroeste 24 Noroeste 0 805.9 -0.7 83
2019-04-08 17:00:00 4.4 7 Noroeste 23 Noroeste 0 806.2 -0.5 76
2019-04-08 16:00:00 4.2 6 Noroeste 22 Noroeste 0 806.4 -0.2 84
2019-04-08 15:00:00 4.8 8 Oeste 21 Oeste 0 806.6 0 76
2019-04-08 14:00:00 3.9 12 Oeste 26 Oeste 0 806.7 0.4 87
2019-04-08 13:00:00 4.3 8 Noroeste 23 Oeste 0 806.6 0.4 81
2019-04-08 12:00:00 1.6 5 Norte 21 Noroeste 0.2 806.6 0.5 100
2019-04-08 11:00:00 1 4 Oeste 19 Oeste 0.2 806.3 0.9 100
2019-04-08 10:00:00 0.8 5 Noroeste 20 Oeste 0.4 806.2 1.1 100
2019-04-08 09:00:00 0.6 13 Oeste 42 Oeste 0.6 806.1 0.9 100
2019-04-08 08:00:00 0.9 24 Oeste 49 Oeste 1.2 805.4 0 100
2019-04-08 07:00:00 0.7 23 Sudoeste 36 Sudoeste 0.8 805.1 -0.5 100
2019-04-08 06:00:00 0.8 11 Oeste 32 Oeste 0.8 805.2 -0.6 100
2019-04-08 05:00:00 0.8 9 Oeste 20 Sudoeste 0 805.4 -0.3 100
2019-04-08 04:00:00 0.3 5 Sur 21 Sur 0 805.6 -0.2 100
2019-04-08 03:00:00 0.2 8 Sur 44 Sur 0 805.8 -0.2 100
2019-04-08 02:00:00 0.8 19 Sudoeste 44 Oeste 0 805.7 -0.4 100
2019-04-08 01:00:00 1 24 Sudoeste 57 Oeste 0 805.8 0 100
2019-04-08 00:00:00 0.5 23 Oeste 50 Oeste 0.8 806 0.6 100
2019-04-07 23:00:00 0.2 24 Oeste 40 Oeste 1.4 806.1 0.7 100
2019-04-07 22:00:00 0 24 Sudoeste 47 Sudoeste 0.6 805.8 0.7 100
2019-04-07 21:00:00 -1.1 28 Sudoeste 43 Sudoeste 0.4 805.4 0.3 100
2019-04-07 20:00:00 -1 23 Sur 34 Sur 1 805.4 0.3 100
2019-04-07 19:00:00 -0.5 11 Sur 28 Sur 1 805.1 0.2 97
2019-04-07 18:00:00 0 6 Sur 16 Sudoeste 0.8 805.1 0.2 94
2019-04-07 17:00:00 0.8 6 Oeste 27 Oeste 0 805.1 0.7 83
2019-04-07 16:00:00 1.8 6 Oeste 22 Oeste 0 804.9 0.9 79
2019-04-07 15:00:00 2.1 7 Oeste 22 Noroeste 0 804.9 1.5 82
2019-04-07 14:00:00 0.1 9 Noroeste 31 Norte 0 804.4 1.6 100
2019-04-07 13:00:00 -1.7 11 Norte 31 Noroeste 0 804 1.9 100
2019-04-07 12:00:00 -3 16 Norte 37 Noroeste 0.4 803.4 1.8 100
2019-04-07 11:00:00 -3.7 19 Norte 42 Noroeste 0 802.8 2 100
2019-04-07 10:00:00 -4 19 Noroeste 49 Noroeste 0.2 802.1 1.9 100
2019-04-07 09:00:00 -4.3 16 Noroeste 40 Norte 0.2 801.6 2.1 100
2019-04-07 08:00:00 -4.4 15 Norte 39 Noroeste 0 800.8 1.9 100
2019-04-07 07:00:00 -4.4 12 Noroeste 39 Oeste 0.2 800.2 1.6 100
2019-04-07 06:00:00 -4.3 14 Noroeste 48 Noroeste 0.2 799.5 0.9 100
2019-04-07 05:00:00 -4 14 Oeste 50 Noroeste 0.8 798.9 0.5 100
2019-04-07 04:00:00 -3.9 14 Oeste 39 Noroeste 2 798.6 0.2 100
2019-04-07 03:00:00 -3.9 15 Noroeste 42 Sudoeste 0.2 798.6 0.7 100
2019-04-07 02:00:00 -3.8 15 Noroeste 54 Noroeste 0 798.4 1 100
2019-04-07 01:00:00 -3.8 17 Noroeste 57 Noroeste 0 798.4 1.3 100
2019-04-07 00:00:00 -3.6 18 Noroeste 58 Noroeste 0 797.9 1.2 100
2019-04-06 23:00:00 -3.4 18 Noroeste 71 Oeste 0 797.4 1.2 100
2019-04-06 22:00:00 -3.6 24 Noroeste 69 Noroeste 0.2 797.1 1.1 100
2019-04-06 21:00:00 -3.3 18 Noroeste 66 Noroeste 0.2 796.7 0.7 98
2019-04-06 20:00:00 -3.3 19 Noroeste 68 Oeste 0.2 796.2 0.6 94
2019-04-06 19:00:00 -2.3 19 Oeste 69 Noroeste 0.4 796 0.5 93
2019-04-06 18:00:00 -2.8 18 Oeste 56 Oeste 1.2 796 0.3 97
2019-04-06 17:00:00 -1.7 20 Oeste 63 Noroeste 1 795.6 0 88
2019-04-06 16:00:00 -0.5 20 Oeste 65 Oeste 0.6 795.5 0.1 87
2019-04-06 15:00:00 -2.2 27 Oeste 60 Oeste 1 795.7 -0.1 94
2019-04-06 14:00:00 -1.8 22 Oeste 59 Oeste 1 795.6 0.1 91
2019-04-06 13:00:00 -1.8 23 Oeste 60 Oeste 0.2 795.4 0.1 92
2019-04-06 12:00:00 -2.7 25 Oeste 54 Oeste 0.2 795.8 0.6 93
2019-04-06 11:00:00 -3.6 22 Oeste 54 Oeste 0.2 795.5 0.5 99
2019-04-06 10:00:00 -3.8 21 Oeste 45 Oeste 0 795.3 0.5 100
2019-04-06 09:00:00 -4.2 23 Oeste 49 Oeste 0 795.2 0.6 100
2019-04-06 08:00:00 -4.4 14 Oeste 45 Oeste 0.2 795 0.3 100
2019-04-06 07:00:00 -5.3 11 Noroeste 32 Noroeste 0 794.8 -0.1 99
2019-04-06 06:00:00 -5.2 11 Noroeste 27 Noroeste 0 794.6 -0.3 100
2019-04-06 05:00:00 -5 8 Noroeste 26 Noroeste 0 794.7 -0.4 99
2019-04-06 04:00:00 -4.9 12 Noroeste 34 Noroeste 0 794.9 -0.1 100
2019-04-06 03:00:00 -4.6 9 Noroeste 34 Noroeste 0.2 794.9 -0.1 100
2019-04-06 02:00:00 -4.2 13 Oeste 45 Oeste 0 795.1 0.3 100
2019-04-06 01:00:00 -4 12 Oeste 37 Oeste 0.2 795 0.6 100
2019-04-06 00:00:00 -4 7 Oeste 28 Oeste 0 795 1.3 99
2019-04-05 23:00:00 -3.9 10 Oeste 32 Oeste 0.6 794.8 1.7 99
2019-04-05 22:00:00 -4.1 12 Oeste 29 Noroeste 0 794.4 1.5 97
2019-04-05 21:00:00 -4 11 Noroeste 32 Noroeste 0 793.7 1.1 100
2019-04-05 20:00:00 -4.2 14 Norte 36 Noroeste 0 793.1 0.8 99
2019-04-05 19:00:00 -4.1 15 Noroeste 31 Noroeste 1.2 792.9 0.8 98
2019-04-05 18:00:00 -2.9 11 Noroeste 26 Norte 1.4 792.6 0.2 95
2019-04-05 17:00:00 -2.5 9 Noroeste 24 Norte 1 792.3 -0.9 97
2019-04-05 16:00:00 -0.6 6 Oeste 27 Sur 0 792.1 -0.6 92
2019-04-05 15:00:00 -2.5 6 Sudeste 20 Sur 3.8 792.4 -0.5 97
2019-04-05 14:00:00 -2.6 7 Norte 38 Sur 4.4 793.2 0.1 98
2019-04-05 13:00:00 -2.2 14 Sudoeste 39 Sur 3.2 792.7 -0.1 100
2019-04-05 12:00:00 -2 12 Sur 31 Sur 1.4 792.9 0 100
2019-04-05 11:00:00 -2.3 20 Sudoeste 39 Sur 1 793.1 0.1 100
2019-04-05 10:00:00 -2.4 18 Sur 39 Sur 0.4 792.8 0 100
2019-04-05 09:00:00 -2.7 14 Sur 37 Sur 0.4 792.9 0 100
2019-04-05 08:00:00 -2.9 16 Sur 40 Sur 0 793 0.1 100
2019-04-05 07:00:00 -2.9 24 Sur 35 Sur 0.2 792.8 -0.4 100
2019-04-05 06:00:00 -2.9 21 Sur 37 Sur 0.8 792.9 -0.9 100
2019-04-05 05:00:00 -2.9 25 Sur 42 Sur 0.8 792.9 -1 100
2019-04-05 04:00:00 -2.7 26 Sur 39 Sur 0.8 793.2 -1.2 100
2019-04-05 03:00:00 -2.9 27 Sudoeste 63 Sur 1.2 793.8 -1.1 100
2019-04-05 02:00:00 -3.1 39 Sudoeste 56 Sudoeste 1 793.9 -1.7 99
2019-04-05 01:00:00 -2.5 33 Sudoeste 53 Sudoeste 0 794.4 -1.5 94
2019-04-05 00:00:00 -0.2 26 Sudoeste 46 Sudoeste 0 794.9 -1.1 58
2019-04-04 23:00:00 -0.5 8 Sudoeste 17 Sudoeste 0 795.6 -0.5 57
2019-04-04 22:00:00 -0.3 9 Oeste 22 Oeste 0 795.9 -0.3 53
2019-04-04 21:00:00 0.1 15 Sudoeste 25 Sudoeste 0 796 -0.4 56
2019-04-04 20:00:00 1.1 13 Sudoeste 40 Sudoeste 0 796.1 -0.5 51
2019-04-04 19:00:00 2 18 Sudoeste 41 Sudoeste 0 796.2 -0.9 46
2019-04-04 18:00:00 2.2 20 Sudoeste 37 Sudoeste 0 796.4 -1.1 46
2019-04-04 17:00:00 2.7 22 Sudoeste 37 Sudoeste 0 796.6 -1.3 45
2019-04-04 16:00:00 4.6 13 Sur 32 Oeste 0 797.1 -0.9 41
2019-04-04 15:00:00 4.7 10 Sur 27 Sur 0 797.5 -0.7 37
2019-04-04 14:00:00 2.4 5 Norte 20 Noroeste 0 797.9 -0.2 46
2019-04-04 13:00:00 2.7 6 Nordeste 17 Norte 0 798 0.3 48
2019-04-04 12:00:00 -0.2 5 Noroeste 20 Norte 0 798.2 0.9 53
2019-04-04 11:00:00 -1.8 7 Este 19 Este 0 798.1 1.5 68
2019-04-04 10:00:00 -5.6 6 Este 22 Norte 0 797.7 1.3 99
2019-04-04 09:00:00 -7.1 8 Norte 24 Norte 0 797.3 1 98
2019-04-04 08:00:00 -7.4 13 Norte 35 Norte 0 796.6 0.1 97
2019-04-04 07:00:00 -7.3 16 Norte 38 Norte 0 796.4 -0.4 98
2019-04-04 06:00:00 -7.3 16 Norte 35 Norte 0 796.3 -1 99
2019-04-04 05:00:00 -6.9 13 Noroeste 37 Noroeste 0 796.5 -1.1 99
2019-04-04 04:00:00 -6.8 14 Norte 30 Noroeste 0 796.8 -1.1 95
2019-04-04 03:00:00 -7.1 16 Norte 38 Noroeste 0 797.3 -1.1 94
2019-04-04 02:00:00 -6.4 17 Norte 39 Norte 0 797.6 -0.9 89
2019-04-04 01:00:00 -5.2 19 Norte 58 Norte 0 797.9 -0.4 79
2019-04-04 00:00:00 -4.1 21 Norte 53 Norte 0 798.4 0.3 73
2019-04-03 23:00:00 -3.2 21 Noroeste 51 Noroeste 0 798.5 0.2 75
2019-04-03 22:00:00 -2.8 22 Norte 52 Noroeste 0 798.3 -0.1 76
2019-04-03 21:00:00 -2.4 17 Norte 54 Noroeste 0 798.1 -0.5 75
2019-04-03 20:00:00 -1.3 23 Noroeste 58 Noroeste 0 798.3 -0.5 62
2019-04-03 19:00:00 0.5 22 Noroeste 62 Norte 0 798.4 -0.8 54
2019-04-03 18:00:00 1.4 22 Noroeste 66 Noroeste 0 798.6 -1.3 53
2019-04-03 17:00:00 1.7 20 Noroeste 57 Norte 0 798.8 -1.6 60
2019-04-03 16:00:00 0.4 23 Norte 54 Norte 0 799.2 -1.8 73
2019-04-03 15:00:00 -1.5 22 Norte 41 Norte 0 799.9 -1.4 93
2019-04-03 14:00:00 -2.3 21 Norte 40 Norte 0 800.4 -1.3 100
2019-04-03 13:00:00 -1.6 18 Norte 37 Norte 0 801 -1.1 100
2019-04-03 12:00:00 -1.4 16 Norte 36 Norte 0 801.3 -1.3 99
2019-04-03 11:00:00 -0.8 11 Norte 30 Norte 0 801.7 -1.1 98
2019-04-03 10:00:00 -0.8 12 Norte 30 Norte 0 802.1 -1.2 98
2019-04-03 09:00:00 -1.3 10 Norte 24 Noroeste 0 802.6 -1.3 95
2019-04-03 08:00:00 -1.2 10 Norte 21 Norte 0 802.8 -1.8 91
2019-04-03 07:00:00 -0.7 7 Norte 24 Norte 0 803.3 -2.2 91
2019-04-03 06:00:00 -0.5 10 Norte 20 Norte 0 803.9 -2.2 90
2019-04-03 05:00:00 -0.3 10 Norte 22 Norte 0 804.6 -2.2 89
2019-04-03 04:00:00 -0.2 12 Norte 24 Norte 0 805.5 -1.8 86
2019-04-03 03:00:00 -0.1 9 Noroeste 20 Norte 0 806.1 -1.5 84
2019-04-03 02:00:00 0.6 10 Noroeste 23 Noroeste 0 806.8 -1.2 78
2019-04-03 01:00:00 1.5 9 Noroeste 34 Oeste 0 807.3 -0.7 69
2019-04-03 00:00:00 2.6 14 Noroeste 31 Noroeste 0 807.6 -0.2 58
2019-04-02 23:00:00 3.2 12 Oeste 32 Oeste 0 808 0.2 60
2019-04-02 22:00:00 3.3 10 Noroeste 32 Noroeste 0 808 0.4 64
2019-04-02 21:00:00 4.3 10 Noroeste 32 Oeste 0 807.8 -0.1 65
2019-04-02 20:00:00 4.9 10 Noroeste 27 Oeste 0 807.8 -0.5 73
2019-04-02 19:00:00 5.3 9 Noroeste 23 Noroeste 0 807.6 -1.1 75
2019-04-02 18:00:00 6.4 8 Noroeste 26 Noroeste 0 807.9 -1.2 76
2019-04-02 17:00:00 4.8 8 Noroeste 36 Oeste 0.8 808.3 -1.1 84
2019-04-02 16:00:00 7.5 5 Noroeste 18 Noroeste 0 808.7 -1.2 70
2019-04-02 15:00:00 6.6 4 Noroeste 18 Norte 0 809.1 -0.8 82
2019-04-02 14:00:00 3.6 9 Oeste 22 Oeste 0.4 809.4 -0.3 92
2019-04-02 13:00:00 4 9 Noroeste 20 Oeste 0.6 809.9 0.5 88
2019-04-02 12:00:00 3.9 5 Norte 19 Norte 0 809.9 0.8 87
2019-04-02 11:00:00 4.1 6 Oeste 14 Oeste 0 809.7 0.7 85
2019-04-02 10:00:00 3.2 2 Nordeste 9 Nordeste 0 809.4 0.6 95
2019-04-02 09:00:00 1.4 6 Nordeste 10 Norte 0 809.1 0.1 96
2019-04-02 08:00:00 0.9 5 Nordeste 17 Norte 0 809 -0.3 97
2019-04-02 07:00:00 0.7 6 Noroeste 14 Noroeste 0 808.8 -0.5 99
2019-04-02 06:00:00 0.6 8 Nordeste 14 Nordeste 0 809 -0.5 100
2019-04-02 05:00:00 0.9 12 Nordeste 22 Norte 0 809.3 -0.2 100
2019-04-02 04:00:00 1.3 12 Norte 19 Norte 0 809.3 -0.4 98
2019-04-02 03:00:00 1.9 6 Norte 14 Norte 0 809.5 -0.1 98
2019-04-02 02:00:00 2.3 6 Este 15 Norte 0.2 809.5 -0.1 96
2019-04-02 01:00:00 2.8 7 Sudoeste 21 Sur 0.2 809.7 0.6 93
2019-04-02 00:00:00 2.6 11 Sur 19 Sur 0 809.6 1 95
2019-04-01 23:00:00 2.6 13 Sur 21 Sur 0 809.6 1.5 96
2019-04-01 22:00:00 1.9 8 Este 20 Sudeste 0 809.1 1.2 94
2019-04-01 21:00:00 2.1 5 Este 16 Este 0.2 808.6 0.9 97
2019-04-01 20:00:00 1.8 8 Este 12 Noroeste 3.2 808.1 0.5 93
2019-04-01 19:00:00 4.3 5 Noroeste 18 Sur 0 807.9 0.2 86
2019-04-01 18:00:00 5.9 10 Sur 19 Sur 0 807.7 -0.2 84
2019-04-01 17:00:00 5.9 7 Sudoeste 12 Este 0 807.6 -0.5 79
2019-04-01 16:00:00 6.1 3 Sudoeste 19 Sur 0 807.7 -0.5 80
2019-04-01 15:00:00 6.2 9 Sur 20 Sur 0 807.9 -0.1 81
2019-04-01 14:00:00 3.5 9 Sur 18 Sur 0 808.1 0.6 95
2019-04-01 13:00:00 3.7 4 Sur 13 Oeste 0 808.2 1.2 92
2019-04-01 12:00:00 3.6 4 Norte 11 Norte 0 808 1.3 89
2019-04-01 11:00:00 2.8 0 Calma 8 Oeste 0 807.5 1.1 91
2019-04-01 10:00:00 2.5 3 Oeste 12 Norte 0 807 0.8 92
2019-04-01 09:00:00 1.3 5 Norte 15 Sur 0 806.7 0.5 100
2019-04-01 08:00:00 0.8 13 Sur 22 Sur 0 806.4 0.3 100
2019-04-01 07:00:00 1 11 Sur 26 Sur 0 806.2 0 100
2019-04-01 06:00:00 1.1 16 Sur 27 Sur 0 806.2 -0.3 100
2019-04-01 05:00:00 1.1 13 Sudeste 25 Sur 0 806.1 -0.5 100
2019-04-01 04:00:00 1.1 14 Sudeste 28 Sur 0 806.2 -0.5 100
2019-04-01 03:00:00 1.3 13 Sudeste 26 Sur 0 806.5 -0.3 100
2019-04-01 02:00:00 1.2 17 Sudeste 30 Sur 0 806.6 -0.2 100
2019-04-01 01:00:00 1.4 15 Sur 26 Sur 0 806.7 0.1 100
2019-04-01 00:00:00 1.5 12 Sudeste 20 Sur 0 806.8 0.4 100
2019-03-31 23:00:00 1.6 7 Sur 27 Este 0 806.8 0.7 99
2019-03-31 22:00:00 1.8 10 Este 25 Nordeste 0 806.6 0.4 98
2019-03-31 21:00:00 2.2 3 Este 25 Este 0 806.4 0.3 97
2019-03-31 20:00:00 2.8 13 Este 23 Sudeste 0 806.1 -0.3 93
2019-03-31 19:00:00 3.7 10 Sudeste 20 Sudeste 0 806.2 -0.5 91
2019-03-31 18:00:00 5.8 9 Sudeste 20 Este 0 806.1 -1.2 78
2019-03-31 17:00:00 4.7 10 Este 18 Este 0 806.4 -1.2 82
2019-03-31 16:00:00 5.4 6 Sudeste 21 Nordeste 0 806.7 -1.3 75
2019-03-31 15:00:00 5 8 Sur 22 Sur 0 807.3 -0.7 79
2019-03-31 14:00:00 5.6 10 Sudeste 24 Sur 0 807.6 -0.4 77
2019-03-31 13:00:00 5 7 Sur 19 Sur 0 808 0.3 78
2019-03-31 12:00:00 8.5 6 Este 24 Este 0 808 0.4 61
2019-03-31 11:00:00 7.9 6 Este 29 Este 0 808 0.5 65
2019-03-31 10:00:00 3.9 6 Sudeste 29 Este 0 807.7 0 80
2019-03-31 09:00:00 1.9 11 Este 29 Este 0 807.6 -0.5 89
2019-03-31 08:00:00 1.4 9 Sudeste 19 Nordeste 0 807.5 -1.3 87
2019-03-31 07:00:00 1.6 7 Este 23 Este 0 807.7 -1.8 81
2019-03-31 06:00:00 2 10 Sudeste 26 Sudeste 0 808.1 -1.8 75
2019-03-31 05:00:00 1.8 8 Sudeste 19 Este 0 808.8 -1.6 80
2019-03-31 03:00:00 2.1 14 Sudeste 33 Sudeste 0 809.9 -1.1 85
2019-03-31 01:00:00 2.5 21 Sudeste 36 Sur 0 810.4 -0.8 79
2019-03-31 00:00:00 3.7 17 Sudeste 31 Sudeste 0 810.5 -0.6 61
2019-03-30 23:00:00 3.8 17 Sudeste 25 Sudeste 0 811 0.1 56
2019-03-30 22:00:00 3.6 15 Sudeste 22 Sudeste 0 811.2 0.2 48
2019-03-30 21:00:00 4.3 14 Sudeste 28 Sudeste 0 811.1 0.6 47
2019-03-30 20:00:00 4.7 17 Sudeste 28 Sudeste 0 810.9 0.3 49
2019-03-30 19:00:00 6 12 Sudeste 27 Sur 0 811 0 51
2019-03-30 18:00:00 7.9 13 Sur 22 Sur 0 810.5 -0.9 48
2019-03-30 17:00:00 7.9 4 Sur 18 Sur 0 810.6 -1.3 48
2019-03-30 16:00:00 8.4 6 Sudoeste 21 Sur 0 811 -1.4 48
2019-03-30 15:00:00 11 11 Sur 25 Sudeste 0 811.4 -1.5 43
2019-03-30 14:00:00 11.5 10 Sur 30 Sur 0 811.9 -1 41
2019-03-30 13:00:00 10.5 13 Sur 29 Sur 0 812.4 -0.5 42
2019-03-30 12:00:00 9.8 12 Sur 29 Sur 0 812.9 0.1 45
2019-03-30 11:00:00 9.3 7 Sur 19 Sur 0 812.9 0.2 44
2019-03-30 10:00:00 6.4 9 Sur 19 Sur 0 812.9 0.2 50
2019-03-30 09:00:00 5 10 Sudeste 22 Sur 0 812.8 0.1 53
2019-03-30 08:00:00 0.6 11 Sudeste 26 Sur 0 812.7 0 74
2019-03-30 07:00:00 -0.9 18 Sudeste 31 Sudeste 0 812.7 -0.3 85
2019-03-30 06:00:00 -1.2 22 Sudeste 37 Sur 0 812.7 -0.7 87
2019-03-30 05:00:00 -1.1 24 Sudeste 42 Sudeste 0 812.7 -1 87
2019-03-30 04:00:00 -0.8 24 Sudeste 41 Sur 0 813 -1.1 88
2019-03-30 03:00:00 -0.9 27 Sur 45 Sur 0 813.4 -1 91
2019-03-30 02:00:00 -0.6 24 Sur 42 Sur 0 813.7 -0.9 89
2019-03-30 01:00:00 -0.1 28 Sur 44 Sudeste 0 814.1 -0.5 86
2019-03-30 00:00:00 0.5 28 Sudeste 45 Sur 0 814.4 -0.2 78
2019-03-29 23:00:00 1.6 23 Sudeste 43 Sudeste 0 814.6 0.3 65
2019-03-29 22:00:00 1.8 23 Sudeste 46 Sudeste 0 814.6 0.3 64
2019-03-29 21:00:00 2.3 24 Sur 37 Sudeste 0 814.6 0.5 63
2019-03-29 20:00:00 3.1 13 Sudeste 43 Sur 0 814.3 0 48
2019-03-29 19:00:00 4.6 20 Sur 38 Sur 0 814.3 -0.3 40
2019-03-29 18:00:00 5.5 21 Sudeste 37 Sur 0 814.1 -0.8 41
2019-03-29 17:00:00 7.2 12 Sudeste 37 Sudeste 0 814.3 -1 37
2019-03-29 16:00:00 7.5 18 Sudeste 36 Sur 0 814.6 -1 36
2019-03-29 15:00:00 8.5 17 Sur 35 Sudeste 0 814.9 -0.9 34
2019-03-29 14:00:00 9.4 14 Sudeste 38 Sur 0 815.3 -0.7 35
2019-03-29 13:00:00 8.8 19 Sudeste 43 Sur 0 815.6 -0.4 37
2019-03-29 12:00:00 8.1 21 Sur 39 Sudeste 0 815.8 0 38
2019-03-29 11:00:00 6 23 Sudeste 49 Sur 0 816 0.3 41
2019-03-29 10:00:00 4.7 26 Sudeste 53 Sur 0 816 0.2 44
2019-03-29 09:00:00 3.1 29 Sur 51 Sur 0 815.8 0 47
2019-03-29 08:00:00 0.5 28 Sudeste 47 Sur 0 815.7 0 55
2019-03-29 07:00:00 -0.3 27 Sudeste 45 Sudeste 0 815.8 -0.2 56
2019-03-29 06:00:00 -0.2 27 Sudeste 42 Sudeste 0 815.8 -0.7 65
2019-03-29 05:00:00 0 29 Sudeste 42 Sur 0 815.7 -1 64
2019-03-29 04:00:00 0.1 26 Sudeste 42 Sur 0 816 -0.8 61
2019-03-29 03:00:00 0.9 24 Sur 44 Sur 0 816.5 -0.3 50
2019-03-29 02:00:00 2 28 Sudeste 43 Sudeste 0 816.7 -0.3 45
2019-03-29 01:00:00 2.8 19 Sudeste 39 Sur 0 816.8 -0.4 40
2019-03-29 00:00:00 2.9 19 Sur 29 Sur 0 816.8 -0.3 39
2019-03-28 23:00:00 3 17 Sur 25 Sudeste 0 817 0.1 39
2019-03-28 22:00:00 3.2 17 Sudeste 23 Sudeste 0 817.2 0.3 38
2019-03-28 21:00:00 3.5 12 Sudeste 24 Sudeste 0 817.1 0.3 39
2019-03-28 20:00:00 3.7 17 Sudeste 27 Sudeste 0 816.9 0.2 39
2019-03-28 19:00:00 6 15 Sur 27 Sur 0 816.9 -0.2 36
2019-03-28 18:00:00 7.9 10 Sudeste 27 Sur 0 816.8 -0.5 32
2019-03-28 17:00:00 9.9 9 Sudeste 22 Sur 0 816.7 -1 30
2019-03-28 16:00:00 10.8 12 Sur 28 Sur 0 817.1 -0.8 29
2019-03-28 15:00:00 11.7 8 Sur 28 Sur 0 817.3 -0.7 28
2019-03-28 14:00:00 11.8 9 Sur 27 Sur 0 817.7 -0.4 29
2019-03-28 13:00:00 11.8 10 Sur 26 Sur 0 817.9 0.1 28
2019-03-28 12:00:00 10.9 12 Sur 26 Sur 0 818 0.4 30
2019-03-28 11:00:00 9.6 13 Sudeste 28 Sur 0 818.1 0.6 31
2019-03-28 10:00:00 7.2 17 Sudeste 32 Sur 0 817.8 0.6 35
2019-03-28 09:00:00 4 20 Sur 35 Sur 0 817.6 0.6 38
2019-03-28 08:00:00 0.5 21 Sur 32 Sur 0 817.5 0.6 52
2019-03-28 07:00:00 -0.1 21 Sur 33 Sur 0 817.2 0.3 54
2019-03-28 06:00:00 0.1 22 Sur 37 Sur 0 817 0.1 50
2019-03-28 05:00:00 0.7 21 Sudeste 33 Sudeste 0 816.9 -0.2 45
2019-03-28 04:00:00 0.8 22 Sudeste 40 Sur 0 816.9 -0.4 44
2019-03-28 03:00:00 1.4 22 Sudeste 33 Sudeste 0 816.9 -0.3 41
2019-03-28 02:00:00 2.1 6 Sudeste 28 Sudeste 0 817.1 0.1 37
2019-03-28 01:00:00 2.6 6 Este 26 Este 0 817.3 0.5 34
2019-03-28 00:00:00 3.8 4 Este 27 Este 0 817.2 0.7 31
2019-03-27 23:00:00 3.7 11 Sudeste 24 Nordeste 0 817 0.9 32
2019-03-27 22:00:00 3.4 12 Este 36 Sudeste 0 816.8 0.8 37
2019-03-27 21:00:00 4.4 21 Sudeste 30 Sudeste 0 816.5 0.8 38
2019-03-27 20:00:00 5.7 6 Sudeste 15 Sudeste 0 816.1 0.4 34
2019-03-27 19:00:00 9.1 9 Sudoeste 19 Oeste 0 816 0.4 31
2019-03-27 18:00:00 10.1 9 Noroeste 25 Noroeste 0 815.7 -0.2 26
2019-03-27 17:00:00 10.7 8 Noroeste 26 Norte 0 815.7 -0.2 27
2019-03-27 16:00:00 10.9 6 Noroeste 25 Norte 0 815.6 -0.5 31
2019-03-27 15:00:00 11 8 Norte 29 Este 0 815.9 0.1 26
2019-03-27 14:00:00 11.3 7 Nordeste 23 Nordeste 0 815.9 0.2 18
2019-03-27 13:00:00 11.8 9 Nordeste 23 Este 0 816.1 0.7 18
2019-03-27 12:00:00 11.2 8 Nordeste 22 Este 0 815.8 0.7 20
2019-03-27 11:00:00 11.1 6 Nordeste 19 Este 0 815.7 0.9 19
2019-03-27 10:00:00 10 4 Este 14 Sudeste 0 815.4 0.9 23
2019-03-27 09:00:00 6.3 4 Nordeste 9 Nordeste 0 815.1 1.1 22
2019-03-27 08:00:00 3.2 5 Este 33 Sur 0 814.8 1 19
2019-03-27 07:00:00 2.9 5 Sudeste 19 Sur 0 814.5 0.6 17
2019-03-27 06:00:00 3.2 4 Noroeste 26 Sudeste 0 814 0 17
2019-03-27 05:00:00 3.1 19 Sudeste 36 Sudeste 0 813.8 -0.4 19
2019-03-27 04:00:00 2.2 18 Sudeste 26 Sudeste 0 813.9 -0.7 25
2019-03-27 03:00:00 2.1 11 Este 25 Sur 0 814 -0.3 27
2019-03-27 02:00:00 2.5 16 Sur 39 Sur 0 814.2 -0.2 25
2019-03-27 01:00:00 3 18 Sudeste 37 Sudeste 0 814.6 0.5 28
2019-03-27 00:00:00 4.1 20 Sudeste 44 Sur 0 814.3 0.4 27
2019-03-26 23:00:00 3.8 10 Este 23 Sudeste 0 814.4 1.2 25
2019-03-26 22:00:00 4.1 6 Nordeste 31 Este 0 814.1 1.3 22
2019-03-26 21:00:00 4.3 10 Este 30 Este 0 813.9 1.4 12
2019-03-26 20:00:00 5 10 Nordeste 28 Nordeste 0 813.2 0.6 22
2019-03-26 19:00:00 7.1 12 Este 44 Este 0 812.8 0.3 24
2019-03-26 18:00:00 8.5 17 Este 46 Este 0 812.5 0 17
2019-03-26 17:00:00 9.9 17 Este 44 Este 0 812.6 -0.2 23
2019-03-26 16:00:00 11.8 21 Este 43 Este 0 812.5 -0.3 28
2019-03-26 15:00:00 12.1 21 Este 43 Nordeste 0 812.5 -0.4 20
2019-03-26 14:00:00 13.2 10 Este 35 Nordeste 0 812.8 0 16
2019-03-26 13:00:00 12.7 14 Este 49 Sudeste 0 812.8 0.3 19
2019-03-26 12:00:00 12.7 12 Este 48 Este 0 812.9 0.8 14
2019-03-26 11:00:00 12.1 12 Este 38 Este 0 812.8 0.9 18
2019-03-26 10:00:00 10.2 12 Este 37 Este 0 812.5 0.9 14
2019-03-26 09:00:00 6.6 9 Sur 37 Nordeste 0 812.1 0.6 22
2019-03-26 08:00:00 4.1 3 Sudoeste 13 Nordeste 0 811.9 0.3 19
2019-03-26 07:00:00 3.5 10 Sudeste 16 Sudeste 0 811.6 -0.2 24
2019-03-26 06:00:00 3.7 4 Este 23 Este 0 811.5 -0.8 19
2019-03-26 05:00:00 3.3 14 Nordeste 25 Nordeste 0 811.6 -1 25
2019-03-26 04:00:00 2.7 15 Este 26 Este 0 811.8 -1.2 31
2019-03-26 03:00:00 2.1 10 Nordeste 18 Este 0 812.3 -1 29
2019-03-26 02:00:00 3.3 16 Este 30 Nordeste 0 812.6 -0.6 28
2019-03-26 01:00:00 3.7 19 Nordeste 27 Nordeste 0 813 -0.1 42
2019-03-26 00:00:00 3.2 12 Nordeste 20 Nordeste 0 813.3 0.1 49
2019-03-25 23:00:00 3.1 11 Nordeste 20 Nordeste 0 813.2 -0.1 59
2019-03-25 22:00:00 3 3 Oeste 11 Oeste 0 813.1 -0.4 63
2019-03-25 21:00:00 3.3 5 Oeste 14 Noroeste 0 813.2 -0.2 61
2019-03-25 20:00:00 4 9 Noroeste 24 Noroeste 0 813.3 -0.3 63
2019-03-25 19:00:00 6.5 11 Noroeste 29 Norte 0 813.5 -0.4 55
2019-03-25 18:00:00 8.7 12 Noroeste 31 Noroeste 0 813.4 -0.8 44
2019-03-25 17:00:00 9.6 15 Noroeste 33 Noroeste 0 813.6 -1.2 43
2019-03-25 16:00:00 10.4 12 Noroeste 29 Oeste 0 813.9 -1.4 38
2019-03-25 15:00:00 10.5 10 Noroeste 30 Noroeste 0 814.2 -1.5 41
2019-03-25 14:00:00 10.5 12 Noroeste 30 Noroeste 0 814.8 -1 42
2019-03-25 13:00:00 10.3 12 Noroeste 29 Noroeste 0 815.3 -0.4 43
2019-03-25 12:00:00 9.6 9 Noroeste 24 Noroeste 0 815.7 0.1 43
2019-03-25 11:00:00 8.8 9 Noroeste 22 Noroeste 0 815.8 0.3 45
2019-03-25 10:00:00 7.7 8 Norte 14 Norte 0 815.7 0.4 45
2019-03-25 09:00:00 6.1 6 Noroeste 13 Noroeste 0 815.6 0.4 48
2019-03-25 08:00:00 4.3 9 Norte 12 Norte 0 815.5 0.2 51
2019-03-25 07:00:00 3.6 3 Oeste 11 Sudeste 0 815.3 -0.4 52
2019-03-25 06:00:00 3.3 6 Sudeste 20 Sudeste 0 815.2 -0.7 54
2019-03-25 05:00:00 3.1 11 Sudeste 19 Sudeste 0 815.3 -0.8 56
2019-03-25 04:00:00 3.6 10 Sudoeste 20 Sudoeste 0 815.7 -0.7 54
2019-03-25 03:00:00 3.2 4 Nordeste 26 Sudeste 0 815.9 -0.7 56
2019-03-25 02:00:00 3.3 15 Sudeste 32 Este 0 816.1 -0.4 56
2019-03-25 01:00:00 3.6 18 Este 39 Este 0 816.4 -0.4 55
2019-03-25 00:00:00 4.2 8 Este 39 Este 0 816.6 0.2 47
2019-03-24 23:00:00 5.2 18 Este 33 Este 0 816.5 0.4 42
2019-03-24 22:00:00 5.1 14 Este 25 Este 0 816.8 0.6 44
2019-03-24 21:00:00 5.5 13 Este 28 Nordeste 0 816.4 0.3 43
2019-03-24 20:00:00 5.8 8 Este 23 Este 0 816.1 0 41
2019-03-24 19:00:00 7.9 11 Sudeste 31 Sudeste 0 816.2 -0.1 34
2019-03-24 18:00:00 9 15 Sudeste 28 Sudeste 0 816.1 -0.2 30
2019-03-24 17:00:00 10.7 6 Este 36 Nordeste 0 816.1 -0.7 29
2019-03-24 16:00:00 11.1 18 Este 38 Este 0 816.3 -0.9 28
2019-03-24 15:00:00 12.7 12 Este 35 Este 0 816.3 -1 25
2019-03-24 14:00:00 12.3 15 Este 42 Este 0 816.8 -0.6 27
2019-03-24 13:00:00 12 13 Este 44 Sudeste 0 817.2 -0.2 28
2019-03-24 12:00:00 11.1 18 Este 43 Este 0 817.3 0.3 26
2019-03-24 11:00:00 11 12 Este 29 Este 0 817.4 0.8 41
2019-03-24 10:00:00 9.1 12 Este 25 Este 0 817.4 1.3 46
2019-03-24 09:00:00 6.1 9 Este 23 Este 0 817 1 55
2019-03-24 08:00:00 1.8 8 Este 27 Este 0 816.6 0.7 70
2019-03-24 07:00:00 1.8 17 Este 38 Este 0 816.1 0.2 68
2019-03-24 06:00:00 1.5 17 Este 39 Sudeste 0 816 -0.7 69
2019-03-24 05:00:00 2 26 Este 41 Este 0 815.9 -0.9 68
2019-03-24 04:00:00 2.1 27 Este 40 Este 0 815.9 -1.4 70
2019-03-24 03:00:00 2.4 17 Sudeste 41 Sudeste 0 816.7 -0.7 69
2019-03-24 02:00:00 2.8 21 Sudeste 36 Sur 0 816.8 -0.5 73
2019-03-24 01:00:00 2.9 10 Sudeste 27 Sur 0 817.3 0 77
2019-03-24 00:00:00 3.6 13 Sur 31 Sudeste 0 817.4 0 74
2019-03-23 23:00:00 4.1 12 Sur 34 Sudeste 0 817.3 0.3 70
2019-03-23 22:00:00 4.4 8 Sudeste 31 Sur 0 817.3 0.4 67
2019-03-23 21:00:00 5.2 17 Sur 28 Sur 0 817.4 0.8 63
2019-03-23 20:00:00 5.2 14 Este 24 Este 0 817 0.5 71
2019-03-23 19:00:00 6.5 9 Sudeste 21 Sudeste 0 816.9 0.1 54
2019-03-23 18:00:00 8.1 11 Sudeste 29 Sur 0 816.6 -0.5 47
2019-03-23 17:00:00 8.2 18 Este 31 Este 0 816.5 -1.1 46
2019-03-23 16:00:00 9 12 Este 35 Sudeste 0 816.8 -1.3 43
2019-03-23 15:00:00 11 22 Sudeste 36 Sudeste 0 817.1 -1.2 36
2019-03-23 14:00:00 11.8 15 Este 39 Este 0 817.6 -1 36
2019-03-23 13:00:00 11.4 15 Este 37 Este 0 818.1 -0.4 37
2019-03-23 12:00:00 10.6 17 Sudeste 37 Sudeste 0 818.3 0 40
2019-03-23 11:00:00 9.1 23 Sudeste 38 Sudeste 0 818.6 0.5 43
2019-03-23 10:00:00 9.1 11 Este 31 Este 0 818.5 0.6 45
2019-03-23 09:00:00 5.5 9 Este 24 Este 0 818.3 0.5 54
2019-03-23 08:00:00 1.6 12 Este 28 Este 0 818.1 0.4 73
2019-03-23 07:00:00 1.3 11 Este 21 Sudeste 0 817.9 0 74
2019-03-23 06:00:00 1.8 2 Nordeste 23 Sur 0 817.8 -0.5 73
2019-03-23 05:00:00 1.6 11 Sudeste 36 Sudeste 0 817.7 -0.8 75
2019-03-23 04:00:00 1.4 20 Sudeste 34 Sudeste 0 817.9 -0.8 82
2019-03-23 03:00:00 1.6 23 Sudeste 39 Sudeste 0 818.3 -0.6 80
2019-03-23 02:00:00 1.8 22 Sudeste 35 Sudeste 0 818.5 -0.5 78
2019-03-23 01:00:00 1.9 19 Sur 36 Sudeste 0 818.7 0.1 75
2019-03-23 00:00:00 2.2 22 Sur 41 Sudeste 0 818.9 0.6 72
2019-03-22 23:00:00 3.7 21 Sudeste 41 Sur 0 819 1 56
2019-03-22 22:00:00 3.5 12 Sudeste 22 Sudeste 0 818.6 0.7 54
2019-03-22 21:00:00 3.8 9 Sur 17 Sur 0 818.3 0.9 53
2019-03-22 20:00:00 3.9 12 Sur 19 Sur 0 818 0.6 50
2019-03-22 19:00:00 6.2 9 Sudeste 21 Sudeste 0 817.9 0.3 41
2019-03-22 18:00:00 8.2 10 Este 22 Este 0 817.4 -0.3 37
2019-03-22 17:00:00 9.3 7 Sudeste 20 Nordeste 0 817.4 -0.6 36
2019-03-22 16:00:00 11.1 8 Este 22 Nordeste 0 817.6 -0.7 32
2019-03-22 15:00:00 11 8 Nordeste 21 Este 0 817.7 -0.7 30
2019-03-22 14:00:00 10 7 Nordeste 21 Nordeste 0 818 -0.3 32
2019-03-22 13:00:00 10.9 6 Nordeste 19 Nordeste 0 818.3 0.2 32
2019-03-22 12:00:00 8.8 5 Nordeste 22 Nordeste 0 818.4 0.6 35
2019-03-22 11:00:00 8.1 12 Este 27 Este 0 818.3 0.6 37
2019-03-22 10:00:00 6.1 12 Este 27 Este 0 818.1 0.8 39
2019-03-22 09:00:00 3.7 11 Este 22 Este 0 817.8 0.7 49
2019-03-22 08:00:00 -0.6 5 Nordeste 10 Norte 0 817.7 0.7 61
2019-03-22 07:00:00 -1.1 6 Nordeste 16 Este 0 817.3 0.4 60
2019-03-22 06:00:00 -0.4 8 Nordeste 12 Norte 0 817.1 0 58
2019-03-22 05:00:00 -0.6 8 Nordeste 19 Este 0 817 0 59
2019-03-22 04:00:00 -1.7 8 Nordeste 24 Sudeste 0 816.9 -0.1 66
2019-03-22 03:00:00 -2.2 16 Sur 33 Sur 0 817.1 -0.2 70
2019-03-22 02:00:00 -0.8 14 Sudeste 26 Sur 0 817 -0.3 62
2019-03-22 01:00:00 0.1 10 Sudeste 25 Sur 0 817 -0.2 57
2019-03-22 00:00:00 0.3 7 Este 14 Sudeste 0 817.3 0.4 54
2019-03-21 23:00:00 0.3 8 Sudeste 15 Sur 0 817.3 0.6 53
2019-03-21 22:00:00 0.7 12 Sudeste 28 Este 0 817.2 0.7 55
2019-03-21 21:00:00 0.6 15 Este 25 Este 0 816.9 0.7 56
2019-03-21 20:00:00 1.1 15 Sudeste 25 Sudeste 0 816.7 0.5 54
2019-03-21 19:00:00 2.3 13 Sudeste 27 Sudeste 0 816.5 0.2 56
2019-03-21 18:00:00 4.7 9 Sur 18 Sudeste 0 816.2 -0.2 51
2019-03-21 17:00:00 5.6 12 Sur 23 Sur 0 816.2 -0.6 50
2019-03-21 16:00:00 5.8 8 Oeste 23 Sudoeste 0 816.3 -0.9 50
2019-03-21 15:00:00 7.9 7 Sur 27 Sur 0 816.4 -0.9 43
2019-03-21 14:00:00 7.5 12 Sur 28 Sur 0 816.8 -0.6 46
2019-03-21 13:00:00 8.7 7 Sur 24 Sur 0 817.2 0 41
2019-03-21 12:00:00 5.9 7 Sur 18 Sudoeste 0 817.3 0.1 52
2019-03-21 11:00:00 4.3 6 Noroeste 15 Norte 0 817.4 0.3 45
2019-03-21 10:00:00 3.4 2 Nordeste 10 Sur 0 817.2 0.4 47
2019-03-21 09:00:00 0.5 5 Sur 10 Sur 0 817.2 0.7 65
2019-03-21 08:00:00 -1.9 6 Sur 19 Sur 0 817.1 1 77
2019-03-21 07:00:00 -2.8 8 Sudeste 28 Sur 0 816.8 0.4 82
2019-03-21 06:00:00 -3.1 17 Sudeste 33 Sur 0 816.5 -0.2 93
2019-03-21 05:00:00 -2.9 22 Sur 39 Sur 0 816.1 -0.7 89
2019-03-21 04:00:00 -2 17 Sudeste 42 Sudeste 0 816.4 -0.6 68
2019-03-21 03:00:00 -2.4 12 Sudeste 39 Sudeste 0 816.7 -0.6 66
2019-03-21 02:00:00 -1.9 6 Este 36 Este 0 816.8 -0.5 63
2019-03-21 01:00:00 -1.7 15 Este 33 Este 0 817 -0.3 64
2019-03-21 00:00:00 -1.2 11 Este 27 Este 0 817.3 0 63